NCAR-RAP Real-Time Weather Data

Output produced by METARs form (21 May 2019  11:14 UTC)
found at http://weather.rap.ucar.edu/surface/
 
RJCN 210900Z 18014KT 140V210 4000 -SHRA BR FEW005 SCT007 BKN009 14/13 Q1005
RJCN 210800Z 18014G25KT 160V220 4500 -SHRA BR FEW005 SCT007 BKN009 14/13 Q1005
RJCN 210700Z 19015KT 4500 -SHRA BR FEW005 SCT007 BKN009 15/14 Q1006
RJCN 210600Z 19017KT 4500 -SHRA BR FEW005 BKN009 BKN012 15/14 Q1006
RJCN 210535Z 18015G28KT 160V240 3200 -SHRA BR FEW005 BKN009 BKN012 14/13 Q1006 RMK 1ST005 5ST009 7ST012 A2972
RJCN 210500Z 19014KT 2400 -SHRA BR FEW005 BKN009 BKN012 14/13 Q1007
RJCN 210432Z 19017KT 3100 -SHRA BR FEW005 SCT009 BKN012 15/13 Q1007 RMK 1ST005 4ST009 7ST012 A2975
RJCN 210419Z 18014G28KT 160V220 3200 -SHRA BR FEW005 SCT009 BKN012 15/13 Q1007 RMK 1ST005 3ST009 7ST012 A2975
RJCN 210400Z 19016G27KT 150V230 3100 -SHRA BR FEW005 SCT009 BKN012 15/14 Q1007
RJCN 210327Z 20020G36KT 4900 -SHRA BR FEW005 BKN012 16/14 Q1007 RMK 1ST005 7ST012 A2975
RJCN 210300Z 19019G33KT 160V230 8000 -SHRA FEW010 BKN015 17/13 Q1007
RJCN 210200Z 18021G36KT 150V210 9999 FEW012 BKN018 17/13 Q1008
RJCN 210100Z 20020G34KT 9999 FEW012 BKN018 17/13 Q1008
RJCN 210000Z 19021G34KT 160V230 9999 FEW008 SCT012 BKN015 16/13 Q1009
RJCN 202330Z 19016G29KT 160V220 9999 FEW008 BKN012 16/13 Q1009
RJCN 200900Z 20018KT 9999 FEW015 BKN/// 15/12 Q1016
RJCN 200800Z 21023G33KT 9999 FEW015 SCT020 BKN/// 18/13 Q1015
RJCN 200700Z 20023G35KT 9999 FEW020 BKN/// 18/12 Q1015
RJCN 200600Z 20019G33KT 9999 FEW020 SCT030 BKN/// 19/12 Q1016
RJCN 200500Z 20019G29KT 170V230 9999 FEW020 SCT030 BKN/// 20/13 Q1016
RJCN 200400Z 20018G33KT 170V230 9999 FEW020 BKN030 19/13 Q1016
RJCN 200300Z 21023G36KT 9999 FEW020 BKN030 21/12 Q1017
RJCN 200200Z 21020KT 180V250 9999 FEW020 BKN030 21/12 Q1017
RJCN 200100Z 22021G31KT 9999 FEW020 BKN025 19/12 Q1017
RJCN 200000Z 22023KT 9999 FEW015 BKN025 19/12 Q1017
RJCN 192330Z 23014KT 9999 FEW015 BKN020 18/13 Q1018
RJCN 190900Z 26011KT 9999 FEW020 SCT/// 16/12 Q1021
RJCN 190800Z 23014KT 9999 FEW020 BKN/// 18/11 Q1020
RJCN 190700Z 22015G25KT 9999 FEW030 BKN/// 19/11 Q1020
RJCN 190600Z 21016KT 9999 FEW035 BKN/// 20/11 Q1020
RJCN 190500Z 23020KT 9999 FEW030 BKN/// 21/12 Q1020
RJCN 190400Z 23020KT 9999 FEW030 BKN/// 21/12 Q1020
RJCN 190300Z 25016KT 9999 FEW025 BKN/// 21/12 Q1021
RJCN 190200Z 25013KT 220V280 9999 FEW020 BKN/// 20/13 Q1021
RJCN 190100Z 27012KT 9999 FEW012 SCT020 18/13 Q1022
RJCN 190000Z 24011KT 9999 FEW005 SCT007 BKN009 15/12 Q1022
RJCN 182330Z 24013KT 7000 FEW005 BKN007 14/11 Q1023